createdAt,value
2023-02-11T00:02:35.298Z,89.65
2023-02-11T00:05:37.998Z,89.25
2023-02-11T00:08:40.372Z,89.61
2023-02-11T00:11:42.925Z,90.95
2023-02-11T00:14:45.180Z,91.05
2023-02-11T00:17:47.747Z,91.38
2023-02-11T00:20:49.987Z,91.38
2023-02-11T00:23:52.984Z,91.20
2023-02-11T00:26:55.159Z,92.29
2023-02-11T00:30:00.500Z,92.37
2023-02-11T00:33:05.873Z,93.83
2023-02-11T00:36:13.330Z,93.57
2023-02-11T00:39:15.833Z,93.55
2023-02-11T00:42:18.470Z,93.97
2023-02-11T00:45:21.403Z,92.96
2023-02-11T00:48:24.013Z,92.74
2023-02-11T00:51:28.186Z,93.03
2023-02-11T00:54:31.625Z,93.78
2023-02-11T00:57:33.869Z,94.00
2023-02-11T01:00:36.650Z,94.24
2023-02-11T01:03:39.671Z,94.67
2023-02-11T01:06:42.486Z,94.75
2023-02-11T01:09:44.791Z,94.93
2023-02-11T01:12:47.387Z,94.94
2023-02-11T01:15:50.426Z,94.81
2023-02-11T01:18:53.217Z,94.29
2023-02-11T01:21:55.471Z,94.61
2023-02-11T01:24:57.967Z,94.44
2023-02-11T01:28:00.202Z,93.81
2023-02-11T01:31:04.853Z,94.85
2023-02-11T01:34:07.773Z,94.96
2023-02-11T01:37:12.368Z,95.78
2023-02-11T01:40:17.422Z,95.73
2023-02-11T01:43:20.480Z,95.43
2023-02-11T01:46:33.371Z,95.66
2023-02-11T01:49:42.313Z,95.34
2023-02-11T01:52:47.175Z,96.26
2023-02-11T01:56:11.705Z,96.08
2023-02-11T01:59:20.431Z,96.40
2023-02-11T02:02:39.696Z,96.34
2023-02-11T02:05:58.195Z,95.75
2023-02-11T02:09:05.509Z,96.45
2023-02-11T02:12:08.605Z,95.81
2023-02-11T02:15:36.337Z,94.84
2023-02-11T02:19:16.666Z,94.95
2023-02-11T02:22:33.709Z,95.63
2023-02-11T02:25:51.408Z,96.10
2023-02-11T02:29:24.745Z,96.68
2023-02-11T02:32:40.462Z,97.10
2023-02-11T02:35:52.403Z,97.40
2023-02-11T02:39:01.552Z,96.75
2023-02-11T02:42:05.605Z,95.81
2023-02-11T02:45:11.013Z,95.81
2023-02-11T02:48:28.837Z,96.30
2023-02-11T02:51:55.693Z,96.02
2023-02-11T02:55:28.553Z,95.16
2023-02-11T02:59:04.498Z,96.79
2023-02-11T03:02:29.057Z,96.57
2023-02-11T03:05:52.315Z,98.71
2023-02-11T03:09:00.133Z,97.59
2023-02-11T03:12:04.697Z,97.53
2023-02-11T03:15:08.289Z,95.07
2023-02-11T03:18:15.634Z,95.31
2023-02-11T03:21:20.125Z,95.21
2023-02-11T03:24:33.099Z,96.87
2023-02-11T03:27:46.736Z,96.41
2023-02-11T03:30:55.973Z,96.09
2023-02-11T03:34:08.719Z,96.27
2023-02-11T03:37:19.967Z,95.69
2023-02-11T03:40:25.819Z,95.39
2023-02-11T03:43:34.558Z,96.00
2023-02-11T03:46:40.178Z,96.77
2023-02-11T03:49:47.087Z,96.80
2023-02-11T03:52:50.162Z,97.66
2023-02-11T03:55:55.115Z,98.83
2023-02-11T03:58:57.741Z,99.33
2023-02-11T04:02:00.308Z,97.36
2023-02-11T04:05:06.787Z,97.19
2023-02-11T04:08:09.460Z,97.92
2023-02-11T04:11:12.012Z,98.17
2023-02-11T04:14:14.342Z,97.80
2023-02-11T04:17:17.038Z,97.91
2023-02-11T04:20:19.466Z,98.85
2023-02-11T04:23:21.952Z,98.69
2023-02-11T04:26:24.519Z,98.05
2023-02-11T04:29:28.178Z,98.77
2023-02-11T04:32:30.354Z,99.09
2023-02-11T04:35:33.261Z,99.39
2023-02-11T04:38:35.507Z,97.70
2023-02-11T04:41:38.042Z,97.83
2023-02-11T04:44:40.260Z,98.94
2023-02-11T04:47:42.777Z,98.64
2023-02-11T04:50:45.058Z,98.26
2023-02-11T04:53:47.550Z,99.15
2023-02-11T04:56:51.066Z,99.46
2023-02-11T04:59:53.623Z,99.64
2023-02-11T05:02:55.956Z,99.63
2023-02-11T05:05:58.585Z,99.81
2023-02-11T05:09:00.789Z,100.00
2023-02-11T05:12:03.435Z,100.00
2023-02-11T05:15:06.095Z,100.00
2023-02-11T05:18:08.730Z,100.00
2023-02-11T05:21:14.113Z,100.00
2023-02-11T05:24:16.720Z,100.00
2023-02-11T05:27:18.886Z,100.00
2023-02-11T05:30:21.593Z,100.00
2023-02-11T05:33:24.235Z,100.00
2023-02-11T05:36:26.955Z,100.00
2023-02-11T05:39:29.213Z,100.00
2023-02-11T05:42:31.731Z,100.00
2023-02-11T05:45:34.425Z,100.00
2023-02-11T05:48:36.978Z,100.00
2023-02-11T05:51:39.145Z,100.00
2023-02-11T05:54:41.670Z,100.00
2023-02-11T05:57:43.915Z,100.00
2023-02-11T06:00:46.560Z,100.00
2023-02-11T06:03:50.122Z,100.00
2023-02-11T06:06:52.398Z,100.00
2023-02-11T06:09:54.940Z,100.00
2023-02-11T06:12:57.193Z,100.00
2023-02-11T06:16:01.325Z,100.00
2023-02-11T06:19:03.728Z,100.00
2023-02-11T06:22:06.548Z,99.47
2023-02-11T06:25:08.788Z,99.39
2023-02-11T06:28:11.425Z,99.00
2023-02-11T06:31:14.712Z,97.17
2023-02-11T06:34:17.387Z,96.09
2023-02-11T06:37:19.688Z,94.62
2023-02-11T06:40:22.312Z,93.45
2023-02-11T06:43:24.535Z,92.33
2023-02-11T06:46:27.064Z,90.33
2023-02-11T06:49:29.513Z,87.10
2023-02-11T06:52:32.981Z,85.04
2023-02-11T06:55:35.482Z,85.14
2023-02-11T06:58:38.332Z,84.91
2023-02-11T07:01:40.538Z,85.08
2023-02-11T07:04:43.286Z,84.50
2023-02-11T07:07:45.509Z,86.26
2023-02-11T07:10:48.020Z,86.33
2023-02-11T07:13:51.604Z,85.97
2023-02-11T07:16:54.471Z,85.39
2023-02-11T07:19:56.794Z,85.64
2023-02-11T07:23:00.165Z,86.13
2023-02-11T07:26:07.848Z,85.22
2023-02-11T07:29:10.375Z,84.27
2023-02-11T07:32:13.800Z,82.44
2023-02-11T07:35:16.563Z,81.73
2023-02-11T07:38:18.900Z,78.84
2023-02-11T07:41:23.372Z,78.13
2023-02-11T07:44:25.713Z,75.53
2023-02-11T07:47:28.260Z,72.45
2023-02-11T07:50:30.512Z,72.96
2023-02-11T07:53:33.183Z,70.10
2023-02-11T07:56:35.364Z,68.71
2023-02-11T07:59:38.066Z,68.48
2023-02-11T08:02:40.340Z,68.29
2023-02-11T08:05:43.820Z,67.93
2023-02-11T08:08:46.964Z,67.33
2023-02-11T08:11:49.435Z,67.50
2023-02-11T08:14:51.656Z,66.04
2023-02-11T08:17:54.126Z,62.56
2023-02-11T08:20:56.350Z,62.56
2023-02-11T08:23:59.104Z,60.81
2023-02-11T08:27:01.423Z,60.46
2023-02-11T08:30:04.473Z,58.20
2023-02-11T08:33:06.774Z,58.93
2023-02-11T08:36:17.422Z,58.58
2023-02-11T08:39:22.763Z,58.30
2023-02-11T08:42:25.425Z,58.49
2023-02-11T08:45:27.788Z,58.48
2023-02-11T08:48:30.331Z,56.86
2023-02-11T08:51:33.198Z,57.48
2023-02-11T08:54:37.116Z,58.16
2023-02-11T08:57:39.240Z,58.29
2023-02-11T09:00:43.990Z,58.23
2023-02-11T09:03:46.438Z,57.34
2023-02-11T09:06:49.122Z,56.20
2023-02-11T09:09:51.462Z,56.24
2023-02-11T09:12:54.010Z,55.53
2023-02-11T09:15:56.727Z,56.63
2023-02-11T09:19:01.754Z,57.31
2023-02-11T09:22:04.145Z,57.28
2023-02-11T09:25:06.797Z,57.12
2023-02-11T09:28:09.890Z,57.98
2023-02-11T09:31:15.603Z,57.90
2023-02-11T09:34:17.987Z,57.61
2023-02-11T09:37:20.457Z,55.87
2023-02-11T09:40:23.106Z,53.79
2023-02-11T09:43:46.697Z,54.80
2023-02-11T09:46:59.801Z,55.20
2023-02-11T09:50:12.234Z,57.15
2023-02-11T09:53:24.773Z,55.46
2023-02-11T09:56:28.210Z,52.26
2023-02-11T09:59:30.460Z,51.04
2023-02-11T10:02:54.532Z,49.58
2023-02-11T10:06:08.812Z,48.30
2023-02-11T10:09:20.085Z,47.25
2023-02-11T10:12:46.749Z,47.44
2023-02-11T10:15:55.237Z,46.93
2023-02-11T10:19:11.227Z,47.48
2023-02-11T10:22:31.034Z,46.22
2023-02-11T10:25:39.545Z,46.69
2023-02-11T10:28:46.201Z,46.77
2023-02-11T10:31:50.720Z,46.55
2023-02-11T10:34:58.757Z,45.52
2023-02-11T10:38:01.333Z,45.28
2023-02-11T10:41:03.995Z,43.51
2023-02-11T10:44:07.693Z,42.33
2023-02-11T10:47:22.052Z,42.67
2023-02-11T10:50:30.640Z,42.63
2023-02-11T10:53:34.802Z,42.40
2023-02-11T10:56:42.020Z,42.98
2023-02-11T10:59:44.669Z,41.90
2023-02-11T11:02:54.927Z,43.25
2023-02-11T11:06:06.715Z,42.16
2023-02-11T11:09:28.686Z,43.11
2023-02-11T11:12:32.845Z,42.19
2023-02-11T11:15:35.349Z,41.31
2023-02-11T11:18:38.084Z,40.37
2023-02-11T11:21:41.666Z,39.08
2023-02-11T11:24:54.047Z,35.26
2023-02-11T11:28:00.492Z,33.03
2023-02-11T11:31:03.164Z,34.32
2023-02-11T11:34:27.012Z,36.98
2023-02-11T11:37:32.065Z,37.30
2023-02-11T11:40:35.654Z,37.61
2023-02-11T11:43:37.998Z,37.15
2023-02-11T11:46:44.117Z,33.85
2023-02-11T11:49:49.615Z,31.38
2023-02-11T11:53:05.016Z,30.26
2023-02-11T11:56:14.137Z,30.55
2023-02-11T11:59:17.265Z,32.85
2023-02-11T12:02:41.182Z,34.40
2023-02-11T12:05:49.873Z,34.73
2023-02-11T12:09:00.085Z,35.51
2023-02-11T12:12:21.498Z,35.54
2023-02-11T12:15:26.660Z,33.92
2023-02-11T12:18:38.701Z,35.43
2023-02-11T12:21:52.110Z,35.44
2023-02-11T12:25:08.597Z,36.72
2023-02-11T12:28:27.913Z,36.83
2023-02-11T12:31:56.008Z,37.25
2023-02-11T12:35:16.650Z,37.68
2023-02-11T12:38:31.481Z,36.86
2023-02-11T12:42:04.523Z,37.09
2023-02-11T12:45:13.913Z,37.10
2023-02-11T12:48:38.257Z,37.73
2023-02-11T12:52:10.108Z,37.56
2023-02-11T12:55:28.068Z,38.71
2023-02-11T12:58:44.530Z,37.86
2023-02-11T13:01:49.672Z,38.33
2023-02-11T13:05:00.101Z,38.94
2023-02-11T13:08:17.822Z,38.62
2023-02-11T13:11:27.980Z,38.29
2023-02-11T13:14:36.640Z,39.55
2023-02-11T13:18:01.655Z,39.10
2023-02-11T13:21:15.871Z,37.33
2023-02-11T13:24:39.668Z,37.07
2023-02-11T13:28:01.466Z,36.65
2023-02-11T13:31:07.284Z,35.71
2023-02-11T13:34:49.426Z,36.49
2023-02-11T13:37:51.989Z,36.08
2023-02-11T13:41:21.060Z,35.58
2023-02-11T13:44:26.609Z,36.01
2023-02-11T13:47:34.909Z,36.47
2023-02-11T13:50:46.657Z,35.99
2023-02-11T13:53:56.065Z,37.09
2023-02-11T13:57:20.669Z,37.62
2023-02-11T14:00:34.812Z,37.92
2023-02-11T14:03:57.835Z,38.77
2023-02-11T14:07:48.518Z,39.08
2023-02-11T14:10:54.404Z,38.41
2023-02-11T14:14:14.251Z,38.65
2023-02-11T14:17:19.046Z,40.05
2023-02-11T14:20:37.863Z,40.18
2023-02-11T14:23:41.304Z,39.35
2023-02-11T14:26:59.247Z,38.67
2023-02-11T14:30:18.765Z,37.36
2023-02-11T14:33:46.781Z,37.50
2023-02-11T14:37:03.580Z,38.24
2023-02-11T14:40:39.946Z,38.59
2023-02-11T14:43:47.973Z,39.89
2023-02-11T14:46:55.380Z,40.20
2023-02-11T14:49:58.109Z,40.46
2023-02-11T14:53:02.488Z,40.91
2023-02-11T14:56:18.482Z,41.98
2023-02-11T14:59:23.144Z,40.71
2023-02-11T15:02:32.940Z,40.97
2023-02-11T15:05:35.640Z,40.99
2023-02-11T15:08:42.564Z,41.76
2023-02-11T15:11:49.549Z,41.37
2023-02-11T15:14:59.168Z,41.92
2023-02-11T15:18:04.180Z,42.72
2023-02-11T15:21:09.820Z,42.79
2023-02-11T15:24:31.014Z,43.22
2023-02-11T15:27:43.358Z,43.26
2023-02-11T15:30:45.666Z,44.49
2023-02-11T15:33:48.318Z,43.40
2023-02-11T15:36:50.598Z,43.96
2023-02-11T15:39:54.194Z,44.16
2023-02-11T15:43:05.956Z,44.27
2023-02-11T15:46:11.675Z,45.46
2023-02-11T15:49:19.228Z,45.14
2023-02-11T15:52:25.181Z,45.11
2023-02-11T15:55:29.331Z,46.12
2023-02-11T15:58:36.795Z,45.77
2023-02-11T16:01:40.048Z,46.16
2023-02-11T16:04:49.721Z,46.35
2023-02-11T16:07:51.893Z,46.95
2023-02-11T16:10:59.084Z,47.28
2023-02-11T16:14:04.100Z,47.61
2023-02-11T16:17:27.756Z,48.75
2023-02-11T16:20:30.663Z,49.12
2023-02-11T16:23:42.040Z,48.91
2023-02-11T16:26:48.911Z,49.45
2023-02-11T16:29:51.983Z,49.52
2023-02-11T16:32:54.485Z,49.28
2023-02-11T16:35:57.762Z,49.24
2023-02-11T16:39:00.037Z,50.01
2023-02-11T16:42:05.187Z,50.27
2023-02-11T16:45:09.633Z,50.20
2023-02-11T16:48:15.236Z,49.66
2023-02-11T16:51:17.386Z,49.65
2023-02-11T16:54:20.495Z,50.82
2023-02-11T16:57:25.728Z,49.30
2023-02-11T17:00:30.047Z,49.28
2023-02-11T17:03:37.491Z,49.96
2023-02-11T17:06:40.045Z,50.33
2023-02-11T17:09:42.255Z,50.21
2023-02-11T17:12:45.180Z,50.53
2023-02-11T17:15:47.428Z,51.20
2023-02-11T17:18:49.949Z,51.11
2023-02-11T17:21:53.122Z,50.48
2023-02-11T17:24:57.095Z,49.74
2023-02-11T17:27:59.369Z,50.26
2023-02-11T17:31:10.435Z,50.68
2023-02-11T17:34:14.179Z,50.35
2023-02-11T17:37:17.089Z,50.44
2023-02-11T17:40:19.842Z,51.39
2023-02-11T17:43:23.119Z,51.44
2023-02-11T17:46:25.585Z,52.04
2023-02-11T17:49:28.206Z,52.45
2023-02-11T17:52:30.587Z,51.52
2023-02-11T17:55:34.179Z,52.54
2023-02-11T17:58:36.558Z,52.18
2023-02-11T18:01:41.076Z,51.59
2023-02-11T18:04:43.654Z,51.53
2023-02-11T18:07:46.240Z,52.01
2023-02-11T18:10:48.827Z,52.00
2023-02-11T18:13:54.435Z,52.19
2023-02-11T18:16:57.595Z,51.66
2023-02-11T18:19:59.896Z,51.82
2023-02-11T18:23:02.727Z,51.72
2023-02-11T18:26:08.047Z,52.52
2023-02-11T18:29:10.551Z,52.23
2023-02-11T18:32:14.180Z,52.14
2023-02-11T18:35:17.049Z,53.13
2023-02-11T18:38:19.340Z,55.30
2023-02-11T18:41:21.872Z,53.79
2023-02-11T18:44:24.708Z,54.24
2023-02-11T18:47:27.301Z,54.20
2023-02-11T18:50:29.592Z,54.53
2023-02-11T18:53:32.094Z,55.97
2023-02-11T18:56:34.451Z,56.14
2023-02-11T18:59:36.960Z,56.05
2023-02-11T19:02:39.273Z,56.02
2023-02-11T19:05:42.531Z,54.51
2023-02-11T19:08:44.736Z,55.07
2023-02-11T19:11:53.851Z,54.01
2023-02-11T19:14:57.975Z,53.13
2023-02-11T19:18:00.443Z,53.61
2023-02-11T19:21:10.610Z,54.30
2023-02-11T19:24:16.133Z,52.99
2023-02-11T19:27:18.413Z,54.07
2023-02-11T19:30:20.993Z,53.85
2023-02-11T19:33:23.376Z,53.87
2023-02-11T19:36:25.923Z,54.44
2023-02-11T19:39:28.164Z,54.27
2023-02-11T19:42:30.623Z,55.27
2023-02-11T19:45:32.878Z,54.94
2023-02-11T19:48:35.400Z,55.44
2023-02-11T19:51:39.223Z,55.04
2023-02-11T19:54:41.698Z,55.01
2023-02-11T19:57:44.011Z,55.01
2023-02-11T20:00:46.487Z,54.56
2023-02-11T20:03:51.465Z,54.44
2023-02-11T20:06:53.687Z,54.61
2023-02-11T20:09:56.384Z,55.22
2023-02-11T20:12:58.565Z,54.80
2023-02-11T20:16:06.898Z,55.57
2023-02-11T20:19:09.238Z,56.11
2023-02-11T20:22:11.741Z,55.20
2023-02-11T20:25:13.964Z,54.95
2023-02-11T20:28:16.844Z,55.83
2023-02-11T20:31:20.265Z,56.17
2023-02-11T20:34:23.009Z,56.46
2023-02-11T20:37:25.426Z,56.35
2023-02-11T20:40:27.941Z,56.95
2023-02-11T20:43:31.010Z,58.11
2023-02-11T20:46:34.979Z,57.38
2023-02-11T20:49:37.096Z,57.52
2023-02-11T20:52:40.125Z,58.66
2023-02-11T20:55:42.361Z,58.36
2023-02-11T20:58:45.095Z,59.68
2023-02-11T21:01:49.711Z,60.47
2023-02-11T21:04:52.325Z,63.70
2023-02-11T21:07:54.696Z,66.50
2023-02-11T21:10:57.477Z,67.77
2023-02-11T21:14:00.653Z,68.99
2023-02-11T21:17:03.178Z,69.61
2023-02-11T21:20:06.166Z,70.29
2023-02-11T21:23:08.702Z,70.19
2023-02-11T21:26:11.328Z,71.92
2023-02-11T21:29:13.977Z,71.22
2023-02-11T21:32:17.668Z,71.50
2023-02-11T21:35:20.264Z,71.83
2023-02-11T21:38:23.071Z,71.88
2023-02-11T21:41:27.369Z,72.33
2023-02-11T21:44:31.983Z,71.68
2023-02-11T21:47:34.518Z,72.27
2023-02-11T21:50:44.175Z,71.38
2023-02-11T21:53:47.386Z,71.26
2023-02-11T21:56:50.650Z,71.65
2023-02-11T21:59:53.486Z,72.29
2023-02-11T22:02:55.721Z,72.06
2023-02-11T22:05:58.228Z,74.35
2023-02-11T22:09:08.079Z,75.22
2023-02-11T22:12:10.681Z,75.50
2023-02-11T22:15:13.439Z,75.77
2023-02-11T22:18:15.988Z,76.09
2023-02-11T22:21:22.143Z,76.60
2023-02-11T22:24:24.961Z,76.89
2023-02-11T22:27:27.180Z,78.84
2023-02-11T22:30:29.643Z,79.92
2023-02-11T22:33:31.800Z,80.29
2023-02-11T22:36:40.901Z,80.63
2023-02-11T22:39:43.093Z,81.16
2023-02-11T22:42:45.544Z,81.00
2023-02-11T22:45:48.144Z,81.61
2023-02-11T22:48:51.032Z,81.96
2023-02-11T22:51:53.194Z,82.49
2023-02-11T22:54:55.717Z,82.94
2023-02-11T22:57:58.080Z,83.49
2023-02-11T23:01:00.771Z,83.71
2023-02-11T23:04:04.910Z,84.87
2023-02-11T23:07:07.403Z,84.13
2023-02-11T23:10:10.720Z,84.61
2023-02-11T23:13:13.246Z,85.33
2023-02-11T23:16:19.558Z,85.31
2023-02-11T23:19:22.135Z,85.12
2023-02-11T23:22:24.476Z,85.77
2023-02-11T23:25:27.026Z,86.63
2023-02-11T23:28:29.830Z,87.01
2023-02-11T23:31:35.220Z,87.27
2023-02-11T23:34:37.515Z,87.15
2023-02-11T23:37:40.129Z,87.10
2023-02-11T23:40:42.712Z,86.69
2023-02-11T23:43:49.646Z,86.91
2023-02-11T23:46:51.844Z,87.39
2023-02-11T23:49:54.373Z,87.45
2023-02-11T23:52:56.566Z,87.58
2023-02-11T23:55:59.071Z,88.68
2023-02-11T23:59:01.267Z,89.27
